Flugplatz Herten-Rheinfelden

EDTR · Badenia-Wirtembergia, Niemcy

Historia METAR EDTR · Flugplatz Herten-Rheinfelden

Poniżej widzisz METAR-y z ostatnich kilku dni. Wybierz rok, aby przeglądać starsze METAR-y, począwszy od roku 2007.

22 lipca 2024

Czas Kod Pogoda Temp. Widoczność Sufit Wiatr METAR/SPECI
18:00
V
26 °C 10 km+ - 290° 290° 10 kt METAR LFSB 221600Z AUTO 29010KT 250V320 9999 FEW045 26/16 Q1019 TEMPO FEW040TCU
17:30
V
27 °C 10 km+ - 280° 280° 9 kt METAR LFSB 221530Z AUTO 28009KT 250V320 9999 FEW015 27/16 Q1019 TEMPO FEW040TCU
17:00
V
26 °C 10 km+ - 300° 300° 12 kt METAR LFSB 221500Z AUTO 30012KT 270V330 9999 FEW044 26/17 Q1019 TEMPO FEW040TCU
16:30
V
27 °C 10 km+ - 280° 280° 11 kt METAR LFSB 221430Z AUTO 28011KT 9999 FEW045 27/17 Q1019 TEMPO FEW040TCU
16:00
V
27 °C 10 km+ - 280° 280° 9 kt METAR LFSB 221400Z AUTO 28009KT 230V320 9999 FEW046 SCT072 27/16 Q1019 TEMPO FEW040TCU
15:30
V
27 °C 10 km+ 7.400 ft 290° 290° 10 kt METAR LFSB 221330Z AUTO 29010KT 260V320 9999 FEW045 BKN074 27/17 Q1019 TEMPO FEW040TCU
15:00
V
27 °C 10 km+ - 280° 280° 10 kt METAR LFSB 221300Z AUTO 28010KT 230V320 9999 FEW045 SCT074 27/16 Q1019 TEMPO FEW040TCU
14:30
V
27 °C 10 km+ - 270° 270° 11 kt METAR LFSB 221230Z AUTO 27011KT 240V310 9999 FEW047 27/16 Q1019 TEMPO FEW040TCU
14:00
V
27 °C 10 km+ - 270° 270° 10 kt METAR LFSB 221200Z AUTO 27010KT 250V320 9999 SCT043 27/16 Q1019 TEMPO FEW040TCU
13:30
V
26 °C 10 km+ - 280° 280° 10 kt METAR LFSB 221130Z AUTO 28010KT 240V310 9999 FEW044 26/16 Q1019 TEMPO FEW040TCU
13:00
V
26 °C 10 km+ - 320° 320° 8 kt METAR LFSB 221100Z AUTO 32008KT 280V340 9999 FEW043 SCT072 26/16 Q1019 TEMPO FEW026TCU
12:30
V
26 °C 10 km+ 4.900 ft 270° 270° 8 kt METAR LFSB 221030Z AUTO 27008KT 220V310 9999 SCT039 BKN049 BKN070 26/16 Q1019 TEMPO FEW026TCU
12:00
V
26 °C 10 km+ - 260° 260° 5 kt METAR LFSB 221000Z AUTO 26005KT 210V300 9999 FEW001 26/16 Q1019 TEMPO FEW026TCU
11:30
V
25 °C 10 km+ 12.000 ft 250° 250° 8 kt METAR LFSB 220930Z AUTO 25008KT 210V280 9999 SCT032 SCT040 BKN120 25/17 Q1019 TEMPO FEW026TCU
11:00
V
24 °C 10 km+ 3.500 ft 290° 290° 7 kt METAR LFSB 220900Z AUTO 29007KT 250V330 9999 FEW030/// BKN035/// BKN050/// //////CB 24/18 Q1019 NOSIG
10:30
V
24 °C 10 km+ 3.400 ft Var Var 1 kt METAR LFSB 220830Z AUTO VRB01KT 9999 SCT026 BKN034 BKN041 24/17 Q1019 TEMPO FEW026TCU
10:00
V
23 °C 10 km+ 4.200 ft Var Var 3 kt METAR LFSB 220800Z AUTO VRB03KT 9999 SCT020 BKN042 BKN054 23/17 Q1019 TEMPO FEW026TCU
09:30
V
22 °C 10 km+ 9.800 ft 250° 250° 3 kt METAR LFSB 220730Z AUTO 25003KT 200V280 9999 FEW018 SCT058 BKN098 22/19 Q1019 TEMPO FEW026TCU
09:00
V
21 °C 10 km+ 4.700 ft 260° 260° 6 kt METAR LFSB 220700Z AUTO 26006KT 9999 BKN047 OVC054 21/19 Q1019 TEMPO FEW026TCU
08:30
V
20 °C 10 km+ 4.200 ft 260° 260° 6 kt METAR LFSB 220630Z AUTO 26006KT 9999 OVC042/// ///CB 20/19 Q1018 NOSIG
08:00
V
20 °C 10 km+ 4.000 ft 270° 270° 7 kt METAR LFSB 220600Z AUTO 27007KT 9999 FEW011/// BKN040/// BKN056/// //////TCU 20/18 Q1018 NOSIG
07:30
M
20 °C 10 km+ 2.500 ft 300° 300° 6 kt METAR LFSB 220530Z AUTO 30006KT 9999 FEW010/// BKN025/// BKN030/// ///TCU 20/19 Q1017 NOSIG
07:00
V
20 °C 10 km+ 3.600 ft 290° 290° 4 kt METAR LFSB 220500Z AUTO 29004KT 9999 FEW017/// SCT029/// BKN036/// ///TCU 20/18 Q1017 TEMPO SHRA FEW040CB
06:30
V
20 °C 10 km+ 6.000 ft 260° 260° 6 kt METAR LFSB 220430Z AUTO 26006KT 9999 -RADZ FEW036 BKN060 OVC072 20/19 Q1017 TEMPO SHRA FEW040CB
06:00
V
20 °C 10 km+ 4.400 ft 270° 270° 9 kt METAR LFSB 220400Z AUTO 27009KT 9999 -RA FEW028/// SCT035/// BKN044/// //////TCU 20/18 Q1016 TEMPO 4000 TSRA FEW040CB
05:30
V
20 °C 10 km+ 5.600 ft 270° 270° 9 kt METAR LFSB 220330Z AUTO 27009KT 9999 FEW027 BKN056 OVC068 20/18 Q1016 TEMPO 4000 TSRA FEW040CB
05:00
V
20 °C 10 km+ 4.800 ft 280° 280° 4 kt METAR LFSB 220300Z AUTO 28004KT 9999 FEW030 SCT042 BKN048 20/18 Q1016 TEMPO 4000 TSRA SCT030CB
04:30
V
20 °C 10 km+ 6.800 ft 270° 270° 3 kt METAR LFSB 220230Z AUTO 27003KT 240V300 9999 SCT027 SCT045 BKN068 20/18 Q1016 TEMPO 4000 TSRA SCT030CB
04:00
V
20 °C 10 km+ 6.800 ft 280° 280° 5 kt METAR LFSB 220200Z AUTO 28005KT 250V310 9999 FEW034 SCT046 BKN068 20/18 Q1016 TEMPO 4000 TSRA SCT030CB
03:30
V
20 °C 10 km+ 4.700 ft 240° 240° 3 kt METAR LFSB 220130Z AUTO 24003KT 9999 SCT035 SCT041 BKN047 20/18 Q1016 TEMPO 4000 TSRA SCT030CB
03:00
V
20 °C 10 km+ 9.200 ft 260° 260° 5 kt METAR LFSB 220100Z AUTO 26005KT 9999 FEW054/// BKN092/// ///TCU 20/18 Q1016 TEMPO 4000 TSRA SCT030CB
02:30
V
20 °C 10 km+ - 240° 240° 4 kt METAR LFSB 220030Z AUTO 24004KT CAVOK 20/18 Q1016 TEMPO 4000 TSRA SCT030CB
02:00
V
20 °C 10 km+ - 230° 230° 4 kt METAR LFSB 220000Z AUTO 23004KT CAVOK 20/18 Q1016 TEMPO 4000 TSRA SCT030CB
01:30
V
20 °C 10 km+ - Var Var 3 kt METAR LFSB 212330Z AUTO VRB03KT 9999 //////CB 20/18 Q1016 TEMPO 4000 TSRA
01:00
V
20 °C 10 km+ - 290° 290° 5 kt METAR LFSB 212300Z AUTO 29005KT 9999 ///CB 20/18 Q1015 TEMPO 4000 TSRA
00:30
V
19 °C 10 km+ - 220° 220° 4 kt METAR LFSB 212230Z AUTO 22004KT 9999 ///CB 19/17 Q1015 TEMPO 4000 TSRA
00:00
V
19 °C 10 km+ - 220° 220° 3 kt METAR LFSB 212200Z AUTO 22003KT 9999 //////CB 19/18 Q1015 TEMPO 4000 TSRA

21 lipca 2024

Czas Kod Pogoda Temp. Widoczność Sufit Wiatr METAR/SPECI
23:30
V
19 °C 10 km+ - 230° 230° 4 kt METAR LFSB 212130Z AUTO 23004KT CAVOK 19/18 Q1014 TEMPO 4000 TSRA SCT030CB
23:00
V
19 °C 10 km+ - Var Var 3 kt METAR LFSB 212100Z AUTO VRB03KT CAVOK 19/18 Q1014 TEMPO FEW040CB
22:30
V
20 °C 10 km+ - 170° 170° 1 kt METAR LFSB 212030Z AUTO 17001KT 9999 SCT043 20/18 Q1014 TEMPO FEW040CB
22:00
V
21 °C 10 km+ - 190° 190° 3 kt METAR LFSB 212000Z AUTO 19003KT CAVOK 21/18 Q1013 TEMPO FEW040CB
21:30
V
21 °C 10 km+ - Var Var 2 kt METAR LFSB 211930Z AUTO VRB02KT CAVOK 21/19 Q1013 TEMPO FEW040CB
21:00
V
23 °C 10 km+ - 160° 160° 4 kt METAR LFSB 211900Z AUTO 16004KT 9999 FEW043 23/18 Q1013 TEMPO FEW040CB
20:30
V
24 °C 10 km+ 16.000 ft 160° 160° 2 kt METAR LFSB 211830Z AUTO 16002KT 9999 FEW046 BKN160 24/18 Q1012 TEMPO FEW040CB
20:00
V
25 °C 10 km+ - 210° 210° 3 kt METAR LFSB 211800Z AUTO 21003KT 110V260 CAVOK 25/18 Q1012 TEMPO FEW040CB
19:30
V
24 °C 10 km+ - 250° 250° 4 kt METAR LFSB 211730Z AUTO 25004KT 210V290 CAVOK 24/17 Q1012 TEMPO FEW040CB
19:00
V
24 °C 10 km+ - 260° 260° 3 kt METAR LFSB 211700Z AUTO 26003KT CAVOK 24/18 Q1012 TEMPO FEW040CB
18:30
V
24 °C 10 km+ - 260° 260° 5 kt METAR LFSB 211630Z AUTO 26005KT 230V290 CAVOK 24/18 Q1012 TEMPO 29015G25KT 4000 TSRA SCT030CB
18:00
V
24 °C 10 km+ - 260° 260° 7 kt METAR LFSB 211600Z AUTO 26007KT CAVOK 24/19 Q1012 TEMPO 29015G25KT 4000 TSRA SCT030CB
17:30
V
24 °C 10 km+ 7.000 ft 260° 260° 11 kt METAR LFSB 211530Z AUTO 26011KT 9999 FEW027/// BKN070/// BKN086/// ///TCU 24/19 Q1012 TEMPO 29015G25KT 4000 TSRA SCT030CB
17:00
V
23 °C 10 km+ 6.600 ft 270° 270° 8 kt METAR LFSB 211500Z AUTO 27008KT 9999 -RA FEW038/// BKN066/// BKN076/// //////CB 23/19 Q1011 TEMPO 29015G25KT 4000 TSRA
16:30
V
24 °C 10 km+ 6.200 ft 270° 270° 10 kt METAR LFSB 211430Z AUTO 27010KT 240V300 9999 FEW047/// BKN062/// BKN074/// ///CB 24/18 Q1011 TEMPO 29015G25KT 4000 TSRA
16:00
V
26 °C 10 km+ 10.000 ft 310° 310° 8 kt METAR LFSB 211400Z AUTO 31008KT 260V020 9999 FEW045/// SCT060/// BKN100/// ///CB 26/18 Q1011 TEMPO 29015G25KT 4000 TSRA
15:30
V
24 °C 10 km+ 10.000 ft 280° 280° 4 kt METAR LFSB 211330Z AUTO 28004KT 240V300 9999 FEW025/// SCT070/// BKN100/// ///CB 24/20 Q1010 TEMPO 29015G25KT 4000 TSRA
15:00
V
26 °C 10 km+ 8.000 ft 280° 280° 10 kt METAR LFSB 211300Z AUTO 28010KT 9999 FEW045/// SCT054/// BKN080/// ///TCU 26/18 Q1010 TEMPO 29015G25KT 4000 TSRA SCT030CB
14:30
V
28 °C 10 km+ - 300° 300° 7 kt METAR LFSB 211230Z AUTO 30007KT 260V360 CAVOK 28/18 Q1010 TEMPO 29015G25KT 4000 TSRA SCT030CB
14:00
V
28 °C 10 km+ - 290° 290° 7 kt METAR LFSB 211200Z AUTO 29007KT 250V320 CAVOK 28/18 Q1010 TEMPO 29015G25KT 4000 TSRA SCT030CB
13:30
V
28 °C 10 km+ 13.000 ft 290° 290° 10 kt METAR LFSB 211130Z AUTO 29010KT 250V320 9999 FEW047 BKN130 BKN160 28/18 Q1010 TEMPO 29015G25KT 4000 TSRA SCT030CB
13:00
V
27 °C 10 km+ - Var Var 4 kt METAR LFSB 211100Z AUTO VRB04KT 9999 ///TCU 27/17 Q1010 TEMPO 4000 TSRA SCT030CB
12:30
V
27 °C 10 km+ 15.000 ft 270° 270° 7 kt METAR LFSB 211030Z AUTO 27007KT 240V330 9999 FEW038/// BKN150/// //////CB 27/18 Q1010 TEMPO 4000 TSRA
12:00
V
26 °C 10 km+ - 200° 200° 4 kt METAR LFSB 211000Z AUTO 20004KT 140V290 CAVOK 26/18 Q1010 TEMPO 4000 TSRA SCT030CB
11:30
V
26 °C 10 km+ - Var Var 2 kt METAR LFSB 210930Z AUTO VRB02KT CAVOK 26/18 Q1010 TEMPO 4000 TSRA SCT030CB
11:00
V
25 °C 10 km+ - 160° 160° 6 kt METAR LFSB 210900Z AUTO 16006KT 100V190 CAVOK 25/18 Q1010 TEMPO FEW040CB
10:30
V
24 °C 10 km+ - 120° 120° 6 kt METAR LFSB 210830Z AUTO 12006KT 080V150 CAVOK 24/18 Q1010 TEMPO FEW040CB
10:00
V
22 °C 10 km+ - 120° 120° 7 kt METAR LFSB 210800Z AUTO 12007KT CAVOK 22/18 Q1010 TEMPO 4000 SHRA FEW040CB
09:30
V
22 °C 10 km+ - 140° 140° 7 kt METAR LFSB 210730Z AUTO 14007KT 110V170 CAVOK 22/18 Q1010 TEMPO 4000 SHRA FEW040CB
09:00
V
22 °C 10 km+ - 150° 150° 9 kt METAR LFSB 210700Z AUTO 15009KT 9999 FEW013 SCT150 22/20 Q1010 TEMPO 4000 SHRA FEW040CB
08:30
V
21 °C 10 km+ 8.000 ft Var Var 3 kt METAR LFSB 210630Z AUTO VRB03KT 9999 FEW042 BKN080 BKN110 21/19 Q1010 TEMPO 4000 SHRA FEW040CB
08:00
V
21 °C 10 km+ 9.800 ft 130° 130° 4 kt METAR LFSB 210600Z AUTO 13004KT 090V180 9999 SCT038/// SCT068/// BKN098/// //////TCU 21/19 Q1010 TEMPO 4000 SHRA FEW040CB
07:30
V
21 °C 10 km+ 11.000 ft 050° 050° 3 kt METAR LFSB 210530Z AUTO 05003KT 020V120 9999 -RA FEW048/// SCT084/// OVC110/// ///CB 21/20 Q1010 TEMPO 4000 SHRA
07:00
V
20 °C 10 km+ - Var Var 3 kt METAR LFSB 210500Z AUTO VRB03KT 9999 -RA //////CB 20/19 Q1010 TEMPO 4000 SHRA
06:30
V
20 °C 10 km+ - Var Var 3 kt METAR LFSB 210430Z AUTO VRB03KT 9999 //////CB 20/19 Q1010 TEMPO 4000 SHRA
06:00
V
20 °C 10 km+ - 200° 200° 3 kt METAR LFSB 210400Z AUTO 20003KT 170V240 9999 //////CB 20/19 Q1010 NOSIG
05:30
V
20 °C 10 km+ - 200° 200° 3 kt METAR LFSB 210330Z AUTO 20003KT 9999 //////TCU 20/19 Q1009 BECMG NSC
05:00
V
21 °C 10 km+ - 110° 110° 7 kt METAR LFSB 210300Z AUTO 11007KT 080V140 9999 //////CB 21/19 Q1008 BECMG NSC
04:30
V
21 °C 10 km+ 8.600 ft Var Var 3 kt METAR LFSB 210230Z AUTO VRB03KT 9999 -RA FEW031/// BKN086/// BKN110/// //////CB 21/19 Q1008 BECMG NSC
04:00
V
21 °C 10 km+ - 240° 240° 5 kt METAR LFSB 210200Z AUTO 24005KT 200V280 9999 //////CB 21/19 Q1009 TEMPO VRB15G25KT BECMG NSC
03:30
V
21 °C 10 km+ - 230° 230° 4 kt METAR LFSB 210130Z AUTO 23004KT CAVOK 21/19 Q1009 TEMPO VRB15G25KT FEW090CB
03:00
V
21 °C 10 km+ - Var Var 3 kt METAR LFSB 210100Z AUTO VRB03KT CAVOK 21/19 Q1008 TEMPO VRB15G25KT FEW090CB
02:30
V
21 °C 10 km+ - 240° 240° 3 kt METAR LFSB 210030Z AUTO 24003KT CAVOK 21/19 Q1008 TEMPO VRB15G25KT FEW090CB
02:00
V
21 °C 10 km+ - 220° 220° 5 kt METAR LFSB 210000Z AUTO 22005KT CAVOK 21/20 Q1008 TEMPO VRB15G25KT FEW090CB
01:30
V
22 °C 10 km+ 13.000 ft 040° 040° 5 kt METAR LFSB 202330Z AUTO 04005KT 9999 -RA FEW054/// BKN130/// OVC170/// ///TCU 22/20 Q1008 TEMPO VRB15G25KT FEW090CB
01:00
V
23 °C 10 km+ - 240° 240° 6 kt METAR LFSB 202300Z AUTO 24006KT 9999 ///CB 23/19 Q1009 TEMPO VRB15G25KT 3500 SHRA
00:30
V
21 °C 10 km+ - 360° 360° 0 kt METAR LFSB 202230Z AUTO 00000KT 9999 //////CB 21/19 Q1008 TEMPO VRB15G25KT 3500 SHRA
00:00
V
21 °C 10 km+ - 320° 320° 4 kt METAR LFSB 202200Z AUTO 32004KT CAVOK 21/19 Q1008 TEMPO VRB15G25KT 3500 SHRA SCT060CB

20 lipca 2024

Czas Kod Pogoda Temp. Widoczność Sufit Wiatr METAR/SPECI
23:30
V
21 °C 10 km+ - 320° 320° 2 kt METAR LFSB 202130Z AUTO 32002KT CAVOK 21/19 Q1008 TEMPO VRB15G25KT 3500 SHRA SCT060CB
23:00
V
21 °C 10 km+ - 320° 320° 4 kt METAR LFSB 202100Z AUTO 32004KT CAVOK 21/19 Q1007 TEMPO 27020G40KT 1500 TSRA BKN040CB
22:30
V
23 °C 10 km+ - Var Var 2 kt METAR LFSB 202030Z AUTO VRB02KT CAVOK 23/19 Q1007 TEMPO 27020G40KT 1500 TSRA BKN040CB
22:00
V
24 °C 10 km+ - 330° 330° 4 kt METAR LFSB 202000Z AUTO 33004KT CAVOK 24/19 Q1008 TEMPO 27020G40KT 1500 TSRA BKN040CB
21:30
V
25 °C 10 km+ - 340° 340° 5 kt METAR LFSB 201930Z AUTO 34005KT CAVOK 25/19 Q1008 TEMPO 27020G40KT 1500 TSRA BKN040CB
21:00
V
26 °C 10 km+ - 330° 330° 6 kt METAR LFSB 201900Z AUTO 33006KT CAVOK 26/19 Q1008 TEMPO 27020G40KT 1500 TSRA BKN040CB
20:30
V
29 °C 10 km+ - Var Var 3 kt METAR LFSB 201830Z AUTO VRB03KT CAVOK 29/19 Q1008 TEMPO 27020G40KT 1500 TSRA BKN040CB
20:00
V
31 °C 10 km+ - 050° 050° 4 kt METAR LFSB 201800Z AUTO 05004KT CAVOK 31/17 Q1007 NOSIG
19:30
V
31 °C 10 km+ - 050° 050° 4 kt METAR LFSB 201730Z AUTO 05004KT 030V090 CAVOK 31/16 Q1008 NOSIG
19:00
V
32 °C 10 km+ - 030° 030° 4 kt METAR LFSB 201700Z AUTO 03004KT 350V060 CAVOK 32/15 Q1008 TEMPO FEW070CB
18:30
V
32 °C 10 km+ - 020° 020° 4 kt METAR LFSB 201630Z AUTO 02004KT 350V060 CAVOK 32/16 Q1008 TEMPO FEW070CB
18:00
V
32 °C 10 km+ - 340° 340° 4 kt METAR LFSB 201600Z AUTO 34004KT 260V020 CAVOK 32/15 Q1008 TEMPO FEW070CB
17:30
V
32 °C 10 km+ - Var Var 3 kt METAR LFSB 201530Z AUTO VRB03KT CAVOK 32/14 Q1009 TEMPO FEW070CB
17:00
V
33 °C 10 km+ - 020° 020° 4 kt METAR LFSB 201500Z AUTO 02004KT 330V080 CAVOK 33/15 Q1009 TEMPO FEW070CB
16:30
V
32 °C 10 km+ - 040° 040° 4 kt METAR LFSB 201430Z AUTO 04004KT 350V150 CAVOK 32/15 Q1009 TEMPO FEW070CB
16:00
V
33 °C 10 km+ - Var Var 3 kt METAR LFSB 201400Z AUTO VRB03KT CAVOK 33/16 Q1009 TEMPO -TSRA FEW070CB
15:30
V
33 °C 10 km+ - Var Var 2 kt METAR LFSB 201330Z AUTO VRB02KT CAVOK 33/14 Q1010 TEMPO -TSRA FEW070CB
15:00
V
32 °C 10 km+ - Var Var 2 kt METAR LFSB 201300Z AUTO VRB02KT CAVOK 32/17 Q1010 TEMPO -TSRA FEW070CB
14:30
V
32 °C 10 km+ - Var Var 3 kt METAR LFSB 201230Z AUTO VRB03KT CAVOK 32/17 Q1010 TEMPO -TSRA FEW070CB
14:00
V
31 °C 10 km+ - Var Var 4 kt METAR LFSB 201200Z AUTO VRB04KT CAVOK 31/16 Q1011 TEMPO -TSRA FEW070CB
13:30
V
31 °C 10 km+ - Var Var 2 kt METAR LFSB 201130Z AUTO VRB02KT CAVOK 31/16 Q1011 TEMPO -TSRA SCT060CB
13:00
V
31 °C 10 km+ - Var Var 3 kt METAR LFSB 201100Z AUTO VRB03KT CAVOK 31/18 Q1011 TEMPO FEW070CB
12:30
V
30 °C 10 km+ - Var Var 2 kt METAR LFSB 201030Z AUTO VRB02KT CAVOK 30/18 Q1012 TEMPO FEW070CB
12:00
V
30 °C 10 km+ - Var Var 3 kt METAR LFSB 201000Z AUTO VRB03KT CAVOK 30/19 Q1012 TEMPO FEW070CB
11:30
V
29 °C 10 km+ - Var Var 3 kt METAR LFSB 200930Z AUTO VRB03KT CAVOK 29/18 Q1012 TEMPO FEW070CB
11:00
V
28 °C 10 km+ - 120° 120° 3 kt METAR LFSB 200900Z AUTO 12003KT 050V180 CAVOK 28/18 Q1012 NOSIG
10:30
V
27 °C 10 km+ - 130° 130° 3 kt METAR LFSB 200830Z AUTO 13003KT 040V190 CAVOK 27/18 Q1013 NOSIG
10:00
V
26 °C 10 km+ - 150° 150° 4 kt METAR LFSB 200800Z AUTO 15004KT 110V190 CAVOK 26/18 Q1013 NOSIG
09:30
V
25 °C 10 km+ - 120° 120° 5 kt METAR LFSB 200730Z AUTO 12005KT 080V160 CAVOK 25/17 Q1013 NOSIG
09:00
V
24 °C 10 km+ - 140° 140° 4 kt METAR LFSB 200700Z AUTO 14004KT 110V190 CAVOK 24/17 Q1013 NOSIG
08:30
V
23 °C 10 km+ - 150° 150° 4 kt METAR LFSB 200630Z AUTO 15004KT 110V180 CAVOK 23/17 Q1013 NOSIG
08:00
V
22 °C 10 km+ - 170° 170° 4 kt METAR LFSB 200600Z AUTO 17004KT CAVOK 22/17 Q1013 NOSIG
Zgłoś zmianę